createdAt,value
2019-04-11T00:00:53.197Z,20.13
2019-04-11T00:03:19.831Z,20.57
2019-04-11T00:05:50.727Z,18.27
2019-04-11T00:08:17.735Z,20.10
2019-04-11T00:10:45.044Z,22.40
2019-04-11T00:13:19.767Z,22.03
2019-04-11T00:15:40.784Z,20.80
2019-04-11T00:18:08.290Z,24.13
2019-04-11T00:20:36.259Z,20.50
2019-04-11T00:23:03.886Z,23.30
2019-04-11T00:25:31.601Z,20.23
2019-04-11T00:27:59.387Z,22.50
2019-04-11T00:30:26.311Z,22.07
2019-04-11T00:32:53.861Z,22.90
2019-04-11T00:35:21.687Z,25.10
2019-04-11T00:37:49.583Z,25.40
2019-04-11T00:40:17.486Z,21.90
2019-04-11T00:42:45.179Z,25.07
2019-04-11T00:45:13.687Z,24.97
2019-04-11T00:47:41.550Z,23.97
2019-04-11T00:50:09.048Z,30.57
2019-04-11T00:52:37.010Z,20.63
2019-04-11T00:55:05.067Z,21.83
2019-04-11T00:57:32.747Z,24.37
2019-04-11T00:59:59.642Z,25.43
2019-04-11T01:02:26.513Z,26.13
2019-04-11T01:04:53.124Z,25.87
2019-04-11T01:07:19.772Z,25.50
2019-04-11T01:09:46.986Z,29.10
2019-04-11T01:12:13.674Z,26.07
2019-04-11T01:14:40.637Z,20.97
2019-04-11T01:17:07.825Z,26.00
2019-04-11T01:19:35.157Z,23.40
2019-04-11T01:22:02.127Z,23.97
2019-04-11T01:24:28.825Z,24.10
2019-04-11T01:26:55.618Z,22.67
2019-04-11T01:29:23.050Z,21.50
2019-04-11T01:31:51.817Z,25.50
2019-04-11T01:34:18.379Z,24.07
2019-04-11T01:36:45.321Z,21.40
2019-04-11T01:39:14.498Z,21.30
2019-04-11T01:41:41.259Z,22.83
2019-04-11T01:44:08.927Z,23.33
2019-04-11T01:46:36.142Z,24.23
2019-04-11T01:49:06.015Z,27.17
2019-04-11T01:51:33.882Z,22.50
2019-04-11T01:54:01.560Z,19.87
2019-04-11T01:56:29.664Z,23.30
2019-04-11T01:58:57.269Z,20.53
2019-04-11T02:01:25.958Z,23.73
2019-04-11T02:03:55.319Z,23.50
2019-04-11T02:06:23.650Z,19.00
2019-04-11T02:08:51.370Z,25.57
2019-04-11T02:11:18.662Z,18.43
2019-04-11T02:13:45.247Z,24.67
2019-04-11T02:16:12.639Z,17.13
2019-04-11T02:18:39.869Z,29.73
2019-04-11T02:21:06.628Z,21.00
2019-04-11T02:23:35.420Z,23.27
2019-04-11T02:26:04.830Z,23.10
2019-04-11T02:28:33.288Z,26.47
2019-04-11T02:31:02.545Z,22.80
2019-04-11T02:33:30.530Z,19.63
2019-04-11T02:35:58.117Z,21.87
2019-04-11T02:38:24.888Z,24.27
2019-04-11T02:40:52.566Z,20.53
2019-04-11T02:43:20.423Z,20.97
2019-04-11T02:45:58.260Z,22.30
2019-04-11T02:48:18.208Z,20.43
2019-04-11T02:50:45.879Z,25.47
2019-04-11T02:53:14.807Z,23.07
2019-04-11T02:55:43.846Z,23.27
2019-04-11T02:58:12.482Z,25.10
2019-04-11T03:00:40.242Z,24.10
2019-04-11T03:03:08.476Z,22.40
2019-04-11T03:05:37.558Z,22.60
2019-04-11T03:08:10.883Z,22.33
2019-04-11T03:10:37.573Z,24.13
2019-04-11T03:13:04.959Z,22.50
2019-04-11T03:15:53.619Z,23.80
2019-04-11T03:18:06.056Z,25.73
2019-04-11T03:20:38.428Z,26.97
2019-04-11T03:23:04.502Z,26.47
2019-04-11T03:25:28.862Z,21.33
2019-04-11T03:27:59.013Z,19.97
2019-04-11T03:30:42.211Z,25.27
2019-04-11T03:38:12.392Z,21.83
2019-04-11T03:40:43.827Z,23.20
2019-04-11T03:43:06.108Z,19.47
2019-04-11T03:45:43.813Z,18.63
2019-04-11T03:48:06.240Z,25.13
2019-04-11T03:50:23.339Z,23.93
2019-04-11T03:52:49.350Z,21.37
2019-04-11T03:55:19.157Z,20.27
2019-04-11T03:57:47.060Z,25.33
2019-04-11T04:00:15.438Z,22.50
2019-04-11T04:02:44.407Z,20.13
2019-04-11T04:05:13.190Z,23.60
2019-04-11T04:07:41.245Z,22.23
2019-04-11T04:10:11.532Z,21.27
2019-04-11T04:12:40.245Z,20.63
2019-04-11T04:15:13.037Z,22.63
2019-04-11T04:17:41.399Z,28.70
2019-04-11T04:20:12.935Z,23.40
2019-04-11T04:22:45.616Z,21.87
2019-04-11T04:25:12.421Z,25.57
2019-04-11T04:27:41.017Z,21.50
2019-04-11T04:30:10.640Z,23.07
2019-04-11T04:32:38.646Z,25.03
2019-04-11T04:35:10.705Z,28.73
2019-04-11T04:37:36.481Z,26.37
2019-04-11T04:40:24.097Z,30.97
2019-04-11T04:42:40.363Z,27.43
2019-04-11T04:45:07.388Z,30.90
2019-04-11T04:47:42.687Z,23.67
2019-04-11T04:50:06.395Z,25.10
2019-04-11T04:52:34.462Z,18.60
2019-04-11T04:55:06.015Z,30.07
2019-04-11T04:57:33.886Z,22.57
2019-04-11T05:00:05.048Z,25.67
2019-04-11T05:02:32.689Z,23.17
2019-04-11T05:05:01.350Z,23.20
2019-04-11T05:07:34.150Z,26.27
2019-04-11T05:09:58.701Z,28.63
2019-04-11T05:12:26.138Z,25.47
2019-04-11T05:14:54.155Z,31.47
2019-04-11T05:17:23.150Z,19.47
2019-04-11T05:19:50.897Z,20.90
2019-04-11T05:22:18.947Z,23.00
2019-04-11T05:24:45.956Z,25.90
2019-04-11T05:27:12.644Z,19.67
2019-04-11T05:29:39.713Z,19.80
2019-04-11T05:32:07.257Z,23.90
2019-04-11T05:34:35.200Z,22.73
2019-04-11T05:37:02.508Z,24.37
2019-04-11T05:39:29.227Z,18.43
2019-04-11T05:41:56.726Z,22.67
2019-04-11T05:44:23.587Z,20.33
2019-04-11T05:46:57.193Z,20.50
2019-04-11T05:49:22.813Z,24.13
2019-04-11T05:51:54.004Z,20.77
2019-04-11T05:54:20.376Z,19.03
2019-04-11T05:56:53.885Z,21.40
2019-04-11T05:59:20.390Z,18.20
2019-04-11T06:01:50.784Z,24.83
2019-04-11T06:04:23.323Z,18.87
2019-04-11T06:06:50.641Z,21.53
2019-04-11T06:09:19.319Z,22.00
2019-04-11T06:11:52.382Z,19.37
2019-04-11T06:14:19.433Z,24.90
2019-04-11T06:16:53.725Z,22.90
2019-04-11T06:19:18.662Z,27.60
2019-04-11T06:21:48.394Z,21.43
2019-04-11T06:24:18.198Z,22.80
2019-04-11T06:26:47.098Z,21.20
2019-04-11T06:29:22.926Z,21.43
2019-04-11T06:31:47.427Z,24.90
2019-04-11T06:34:17.564Z,21.87
2019-04-11T06:36:48.241Z,20.90
2019-04-11T06:39:18.925Z,19.13
2019-04-11T06:41:48.640Z,21.57
2019-04-11T06:44:17.432Z,19.27
2019-04-11T06:46:53.875Z,24.97
2019-04-11T06:49:16.418Z,18.30
2019-04-11T06:51:46.270Z,18.30
2019-04-11T06:54:15.099Z,27.20
2019-04-11T06:56:43.813Z,15.60
2019-04-11T06:59:12.309Z,17.03
2019-04-11T07:01:40.550Z,17.40
2019-04-11T07:04:09.364Z,13.63
2019-04-11T07:06:38.115Z,13.40
2019-04-11T07:09:07.804Z,17.27
2019-04-11T07:11:36.438Z,16.10
2019-04-11T07:14:06.103Z,13.30
2019-04-11T07:16:34.541Z,22.03
2019-04-11T07:19:03.084Z,20.93
2019-04-11T07:21:31.696Z,14.07
2019-04-11T07:24:00.275Z,9.53
2019-04-11T07:26:29.447Z,15.47
2019-04-11T07:28:59.288Z,11.07
2019-04-11T07:31:27.979Z,8.33
2019-04-11T07:33:56.624Z,15.23
2019-04-11T07:36:25.293Z,10.60
2019-04-11T07:38:54.881Z,10.60
2019-04-11T07:41:23.928Z,13.00
2019-04-11T07:43:50.751Z,9.93
2019-04-11T07:46:19.215Z,15.27
2019-04-11T07:48:46.887Z,11.23
2019-04-11T07:51:15.698Z,19.10
2019-04-11T07:53:44.362Z,13.93
2019-04-11T07:56:13.213Z,8.67
2019-04-11T07:58:42.995Z,7.80
2019-04-11T08:01:12.624Z,10.60
2019-04-11T08:03:41.493Z,10.23
2019-04-11T08:06:11.119Z,7.80
2019-04-11T08:08:38.990Z,8.10
2019-04-11T08:11:07.757Z,9.30
2019-04-11T08:13:36.896Z,12.10
2019-04-11T08:16:04.926Z,14.83
2019-04-11T08:18:34.912Z,12.67
2019-04-11T08:21:03.882Z,7.63
2019-04-11T08:23:31.711Z,9.63
2019-04-11T08:26:00.284Z,8.00
2019-04-11T08:28:27.074Z,6.83
2019-04-11T08:30:57.250Z,8.23
2019-04-11T08:33:26.742Z,11.63
2019-04-11T08:35:57.138Z,9.47
2019-04-11T08:38:26.684Z,16.97
2019-04-11T08:40:55.669Z,9.43
2019-04-11T08:43:24.637Z,12.00
2019-04-11T08:45:51.610Z,10.60
2019-04-11T08:48:19.172Z,13.60
2019-04-11T08:50:48.666Z,8.87
2019-04-11T08:53:18.476Z,6.63
2019-04-11T08:55:53.704Z,8.13
2019-04-11T08:58:18.340Z,9.13
2019-04-11T09:00:48.878Z,11.07
2019-04-11T09:03:19.707Z,9.23
2019-04-11T09:05:49.294Z,8.27
2019-04-11T09:08:18.378Z,9.57
2019-04-11T09:10:49.150Z,9.53
2019-04-11T09:13:18.079Z,8.67
2019-04-11T09:15:46.871Z,7.20
2019-04-11T09:18:14.929Z,9.03
2019-04-11T09:20:45.485Z,10.07
2019-04-11T09:23:13.430Z,6.23
2019-04-11T09:25:43.432Z,8.07
2019-04-11T09:28:13.368Z,7.23
2019-04-11T09:30:43.130Z,16.13
2019-04-11T09:33:12.905Z,9.30
2019-04-11T09:35:41.872Z,7.73
2019-04-11T09:38:10.540Z,6.90
2019-04-11T09:40:39.610Z,9.47
2019-04-11T09:43:09.380Z,5.93
2019-04-11T09:45:38.656Z,7.73
2019-04-11T09:48:14.075Z,7.03
2019-04-11T09:50:38.042Z,10.17
2019-04-11T09:53:05.738Z,10.60
2019-04-11T09:55:34.833Z,7.57
2019-04-11T09:58:02.866Z,7.70
2019-04-11T10:00:32.035Z,7.00
2019-04-11T10:03:00.859Z,8.40
2019-04-11T10:05:30.039Z,6.53
2019-04-11T10:07:59.992Z,8.73
2019-04-11T10:10:29.162Z,7.97
2019-04-11T10:12:57.879Z,7.23
2019-04-11T10:15:27.214Z,10.73
2019-04-11T10:17:56.939Z,6.43
2019-04-11T10:20:24.538Z,10.03
2019-04-11T10:22:54.425Z,9.03
2019-04-11T10:25:23.400Z,7.90
2019-04-11T10:27:53.106Z,8.70
2019-04-11T10:30:23.775Z,9.07
2019-04-11T10:32:52.651Z,6.70
2019-04-11T10:35:22.033Z,7.07
2019-04-11T10:37:50.472Z,6.87
2019-04-11T10:40:21.273Z,9.10
2019-04-11T10:42:49.499Z,8.70
2019-04-11T10:45:18.490Z,10.27
2019-04-11T10:47:45.509Z,10.13
2019-04-11T10:50:15.493Z,8.37
2019-04-11T10:52:46.654Z,7.37
2019-04-11T10:55:15.600Z,6.40
2019-04-11T10:57:44.698Z,7.27
2019-04-11T11:00:18.938Z,7.80
2019-04-11T11:02:47.382Z,9.70
2019-04-11T11:05:19.122Z,6.10
2019-04-11T11:07:47.506Z,12.03
2019-04-11T11:10:16.010Z,8.17
2019-04-11T11:12:45.482Z,8.77
2019-04-11T11:15:15.544Z,8.47
2019-04-11T11:18:05.589Z,9.73
2019-04-11T11:20:24.805Z,7.93
2019-04-11T11:22:48.607Z,8.70
2019-04-11T11:25:19.268Z,7.53
2019-04-11T11:27:48.028Z,5.60
2019-04-11T11:30:16.977Z,6.00
2019-04-11T11:32:45.280Z,5.53
2019-04-11T11:35:15.126Z,7.17
2019-04-11T11:37:45.266Z,6.77
2019-04-11T11:40:16.565Z,9.23
2019-04-11T11:42:44.840Z,11.20
2019-04-11T11:45:13.678Z,11.07
2019-04-11T11:47:43.195Z,11.73
2019-04-11T11:50:18.218Z,7.13
2019-04-11T11:52:43.988Z,8.67
2019-04-11T11:55:12.830Z,7.47
2019-04-11T11:57:41.302Z,11.43
2019-04-11T12:00:12.669Z,7.90
2019-04-11T12:02:42.366Z,7.90
2019-04-11T12:05:15.833Z,7.17
2019-04-11T12:07:42.985Z,8.00
2019-04-11T12:10:13.238Z,7.23
2019-04-11T12:12:42.249Z,9.20
2019-04-11T12:15:14.181Z,6.73
2019-04-11T12:17:42.764Z,6.63
2019-04-11T12:20:15.702Z,8.40
2019-04-11T12:22:42.296Z,5.33
2019-04-11T12:25:12.185Z,10.70
2019-04-11T12:27:41.535Z,6.60
2019-04-11T12:30:10.933Z,5.53
2019-04-11T12:32:40.880Z,6.40
2019-04-11T12:35:11.621Z,11.23
2019-04-11T12:37:41.336Z,7.97
2019-04-11T12:40:10.419Z,10.73
2019-04-11T12:42:39.942Z,7.70
2019-04-11T12:45:09.539Z,9.87
2019-04-11T12:47:38.572Z,8.57
2019-04-11T12:50:09.316Z,7.40
2019-04-11T12:52:37.779Z,9.47
2019-04-11T12:55:08.261Z,10.43
2019-04-11T12:57:37.334Z,7.60
2019-04-11T13:00:09.003Z,8.47
2019-04-11T13:02:37.880Z,6.20
2019-04-11T13:05:07.555Z,10.10
2019-04-11T13:07:36.494Z,6.43
2019-04-11T13:10:10.482Z,6.93
2019-04-11T13:12:39.098Z,8.40
2019-04-11T13:15:08.108Z,10.10
2019-04-11T13:17:37.125Z,8.17
2019-04-11T13:20:07.310Z,8.70
2019-04-11T13:22:34.160Z,7.03
2019-04-11T13:25:02.822Z,6.73
2019-04-11T13:27:31.552Z,11.03
2019-04-11T13:30:00.049Z,7.83
2019-04-11T13:32:28.511Z,8.03
2019-04-11T13:34:57.241Z,9.40
2019-04-11T13:37:25.866Z,9.83
2019-04-11T13:39:54.351Z,12.93
2019-04-11T13:42:22.875Z,14.07
2019-04-11T13:44:49.473Z,12.63
2019-04-11T13:47:16.136Z,12.87
2019-04-11T13:49:45.359Z,9.67
2019-04-11T13:52:13.669Z,8.10
2019-04-11T13:54:42.404Z,8.57
2019-04-11T13:57:10.995Z,11.63
2019-04-11T13:59:39.596Z,11.30
2019-04-11T14:02:08.416Z,7.97
2019-04-11T14:04:39.004Z,9.57
2019-04-11T14:07:06.945Z,14.80
2019-04-11T14:09:35.650Z,9.90
2019-04-11T14:12:07.155Z,9.23
2019-04-11T14:14:35.815Z,9.13
2019-04-11T14:17:04.805Z,9.27
2019-04-11T14:19:33.354Z,6.97
2019-04-11T14:22:00.366Z,8.60
2019-04-11T14:24:28.979Z,8.43
2019-04-11T14:26:57.660Z,10.93
2019-04-11T14:29:26.441Z,8.27
2019-04-11T14:31:56.231Z,8.10
2019-04-11T14:34:24.821Z,13.47
2019-04-11T14:36:54.517Z,7.13
2019-04-11T14:39:23.288Z,10.13
2019-04-11T14:41:51.817Z,9.63
2019-04-11T14:44:19.261Z,9.63
2019-04-11T14:46:47.869Z,9.47
2019-04-11T14:49:14.604Z,12.37
2019-04-11T14:51:44.002Z,9.93
2019-04-11T14:54:17.277Z,9.67
2019-04-11T14:56:42.684Z,11.13
2019-04-11T14:59:13.190Z,8.80
2019-04-11T15:01:43.943Z,8.33
2019-04-11T15:04:13.600Z,11.80
2019-04-11T15:06:44.806Z,7.67
2019-04-11T15:09:14.748Z,9.37
2019-04-11T15:11:44.256Z,10.67
2019-04-11T15:14:12.830Z,10.07
2019-04-11T15:16:41.405Z,6.60
2019-04-11T15:19:08.155Z,8.17
2019-04-11T15:21:37.248Z,10.30
2019-04-11T15:24:07.228Z,15.60
2019-04-11T15:26:36.639Z,12.50
2019-04-11T15:29:05.522Z,8.47
2019-04-11T15:31:39.513Z,7.60
2019-04-11T15:34:05.052Z,10.90
2019-04-11T15:36:31.607Z,7.07
2019-04-11T15:39:00.137Z,15.17
2019-04-11T15:41:28.621Z,14.27
2019-04-11T15:43:57.188Z,11.53
2019-04-11T15:46:28.702Z,10.70
2019-04-11T15:48:57.415Z,8.80
2019-04-11T15:51:25.933Z,13.30
2019-04-11T15:53:54.406Z,7.10
2019-04-11T15:56:22.901Z,7.37
2019-04-11T15:58:51.398Z,8.27
2019-04-11T16:01:19.978Z,9.23
2019-04-11T16:03:48.503Z,10.27
2019-04-11T16:06:16.980Z,11.60
2019-04-11T16:08:43.904Z,7.90
2019-04-11T16:11:13.006Z,7.93
2019-04-11T16:13:41.699Z,12.63
2019-04-11T16:16:11.918Z,10.67
2019-04-11T16:18:39.566Z,11.20
2019-04-11T16:21:18.175Z,9.00
2019-04-11T16:23:38.480Z,10.17
2019-04-11T16:26:07.119Z,14.67
2019-04-11T16:28:37.937Z,8.77
2019-04-11T16:31:04.598Z,8.27
2019-04-11T16:33:33.206Z,13.03
2019-04-11T16:36:01.969Z,8.00
2019-04-11T16:38:30.657Z,12.33
2019-04-11T16:40:59.179Z,11.57
2019-04-11T16:43:26.057Z,10.93
2019-04-11T16:45:55.328Z,13.70
2019-04-11T16:48:25.533Z,14.30
2019-04-11T16:50:50.965Z,10.87
2019-04-11T16:53:17.784Z,11.93
2019-04-11T16:55:44.556Z,14.03
2019-04-11T16:58:15.125Z,15.17
2019-04-11T17:00:40.141Z,14.80
2019-04-11T17:03:06.996Z,10.33
2019-04-11T17:05:34.096Z,14.93
2019-04-11T17:08:03.279Z,10.07
2019-04-11T17:10:31.879Z,11.53
2019-04-11T17:12:58.571Z,13.10
2019-04-11T17:15:25.197Z,13.60
2019-04-11T17:17:53.592Z,15.10
2019-04-11T17:20:20.249Z,15.33
2019-04-11T17:22:48.845Z,14.63
2019-04-11T17:25:17.610Z,17.40
2019-04-11T17:27:45.949Z,13.70
2019-04-11T17:30:12.737Z,12.83
2019-04-11T17:33:17.308Z,15.90
2019-04-11T17:35:44.069Z,16.23
2019-04-11T17:38:10.770Z,16.20
2019-04-11T17:40:39.586Z,12.77
2019-04-11T17:43:06.421Z,19.70
2019-04-11T17:45:33.588Z,22.53
2019-04-11T17:48:00.360Z,22.03
2019-04-11T17:50:27.146Z,21.20
2019-04-11T17:52:54.765Z,25.97
2019-04-11T17:55:23.996Z,18.47
2019-04-11T17:57:50.943Z,22.47
2019-04-11T18:00:22.131Z,21.10
2019-04-11T18:02:49.083Z,22.67
2019-04-11T18:05:17.127Z,20.17
2019-04-11T18:07:46.856Z,22.17
2019-04-11T18:10:13.261Z,21.37
2019-04-11T18:12:43.401Z,17.23
2019-04-11T18:15:10.396Z,18.13
2019-04-11T18:17:37.102Z,23.93
2019-04-11T18:20:07.725Z,20.63
2019-04-11T18:22:34.894Z,21.63
2019-04-11T18:25:04.551Z,26.27
2019-04-11T18:27:31.239Z,18.30
2019-04-11T18:29:58.057Z,32.63
2019-04-11T18:32:25.183Z,34.97
2019-04-11T18:34:52.781Z,31.93
2019-04-11T18:37:20.873Z,36.23
2019-04-11T18:39:47.486Z,32.57
2019-04-11T18:42:16.933Z,27.47
2019-04-11T18:44:43.731Z,28.50
2019-04-11T18:47:10.660Z,33.97
2019-04-11T18:49:37.380Z,36.37
2019-04-11T18:52:04.218Z,35.73
2019-04-11T18:54:30.916Z,38.37
2019-04-11T18:56:57.617Z,29.83
2019-04-11T18:59:24.485Z,28.90
2019-04-11T19:01:51.230Z,42.77
2019-04-11T19:04:18.064Z,46.70
2019-04-11T19:06:44.923Z,43.63
2019-04-11T19:09:16.441Z,40.67
2019-04-11T19:11:43.852Z,46.57
2019-04-11T19:14:15.781Z,49.97
2019-04-11T19:16:46.106Z,32.70
2019-04-11T19:19:18.023Z,39.23
2019-04-11T19:21:42.332Z,31.07
2019-04-11T19:24:12.930Z,38.00
2019-04-11T19:26:39.672Z,30.50
2019-04-11T19:29:06.397Z,32.67
2019-04-11T19:31:33.181Z,35.13
2019-04-11T19:34:04.462Z,37.43
2019-04-11T19:36:28.750Z,37.63
2019-04-11T19:38:55.418Z,31.30
2019-04-11T19:41:22.345Z,30.57
2019-04-11T19:43:49.932Z,29.00
2019-04-11T19:46:18.003Z,35.50
2019-04-11T19:48:45.389Z,29.90
2019-04-11T19:51:12.017Z,37.73
2019-04-11T19:53:38.700Z,35.47
2019-04-11T19:56:07.172Z,37.80
2019-04-11T19:58:33.977Z,30.80
2019-04-11T20:01:00.668Z,33.43
2019-04-11T20:03:27.275Z,42.57
2019-04-11T20:05:53.855Z,44.40
2019-04-11T20:08:20.542Z,51.30
2019-04-11T20:10:47.136Z,54.87
2019-04-11T20:13:16.068Z,45.47
2019-04-11T20:15:43.176Z,41.93
2019-04-11T20:18:10.226Z,45.37
2019-04-11T20:20:37.600Z,45.57
2019-04-11T20:23:04.932Z,48.47
2019-04-11T20:25:31.638Z,53.63
2019-04-11T20:27:58.317Z,60.70
2019-04-11T20:30:26.578Z,66.13
2019-04-11T20:32:53.261Z,73.87
2019-04-11T20:35:28.759Z,58.13
2019-04-11T20:37:48.956Z,62.93
2019-04-11T20:40:18.786Z,59.90
2019-04-11T20:42:44.084Z,70.30
2019-04-11T20:45:16.813Z,67.53
2019-04-11T20:47:52.998Z,61.97
2019-04-11T20:50:27.068Z,48.90
2019-04-11T20:52:54.307Z,51.83
2019-04-11T20:55:21.221Z,51.43
2019-04-11T20:57:47.930Z,44.63
2019-04-11T21:00:16.005Z,47.00
2019-04-11T21:02:42.568Z,47.90
2019-04-11T21:05:09.454Z,45.67
2019-04-11T21:07:38.908Z,48.10
2019-04-11T21:10:05.890Z,49.90
2019-04-11T21:12:37.052Z,47.90
2019-04-11T21:15:06.372Z,39.67
2019-04-11T21:17:33.024Z,44.00
2019-04-11T21:19:59.603Z,40.23
2019-04-11T21:22:26.221Z,41.23
2019-04-11T21:24:52.804Z,40.40
2019-04-11T21:27:20.628Z,42.40
2019-04-11T21:29:47.261Z,44.97
2019-04-11T21:32:14.135Z,53.10
2019-04-11T21:34:40.884Z,52.97
2019-04-11T21:37:07.642Z,45.67
2019-04-11T21:39:34.302Z,43.87
2019-04-11T21:42:00.953Z,46.20
2019-04-11T21:44:27.853Z,49.87
2019-04-11T21:46:54.559Z,46.63
2019-04-11T21:49:21.310Z,56.30
2019-04-11T21:51:49.321Z,40.13
2019-04-11T21:54:16.104Z,42.97
2019-04-11T21:56:42.703Z,42.03
2019-04-11T21:59:09.340Z,39.43
2019-04-11T22:01:40.736Z,33.50
2019-04-11T22:04:08.142Z,35.70
2019-04-11T22:06:34.976Z,40.37
2019-04-11T22:09:04.840Z,39.93
2019-04-11T22:11:32.202Z,36.07
2019-04-11T22:13:58.871Z,36.43
2019-04-11T22:16:25.675Z,35.77
2019-04-11T22:18:52.309Z,37.83
2019-04-11T22:21:18.889Z,37.00
2019-04-11T22:23:48.946Z,35.73
2019-04-11T22:26:14.886Z,38.00
2019-04-11T22:28:41.645Z,38.10
2019-04-11T22:31:08.499Z,35.53
2019-04-11T22:33:37.094Z,34.00
2019-04-11T22:36:03.754Z,31.47
2019-04-11T22:38:31.073Z,31.33
2019-04-11T22:41:01.764Z,36.87
2019-04-11T22:43:27.186Z,31.27
2019-04-11T22:45:53.944Z,35.57
2019-04-11T22:48:20.606Z,36.27
2019-04-11T22:50:47.236Z,36.23
2019-04-11T22:53:16.876Z,28.90
2019-04-11T22:55:43.483Z,34.90
2019-04-11T22:58:13.968Z,36.17
2019-04-11T23:00:38.812Z,31.90
2019-04-11T23:03:07.354Z,33.70
2019-04-11T23:05:35.198Z,30.50
2019-04-11T23:08:02.897Z,31.57
2019-04-11T23:10:30.024Z,33.30
2019-04-11T23:12:56.613Z,33.43
2019-04-11T23:15:23.329Z,30.13
2019-04-11T23:17:50.138Z,33.70
2019-04-11T23:20:16.805Z,38.07
2019-04-11T23:22:43.502Z,38.43
2019-04-11T23:25:10.229Z,32.47
2019-04-11T23:27:38.725Z,27.80
2019-04-11T23:30:07.001Z,33.23
2019-04-11T23:32:33.856Z,28.33
2019-04-11T23:35:00.458Z,25.00
2019-04-11T23:37:27.009Z,30.70
2019-04-11T23:39:53.638Z,26.60
2019-04-11T23:42:20.294Z,36.60
2019-04-11T23:44:47.903Z,31.27
2019-04-11T23:47:15.726Z,28.77
2019-04-11T23:49:42.365Z,32.73
2019-04-11T23:52:08.982Z,31.53
2019-04-11T23:54:35.822Z,31.07
2019-04-11T23:57:03.786Z,32.90
2019-04-11T23:59:32.137Z,33.87
